Main page
METAR-TAF:

METAR-TAF

Airports :

Skyros Island National Airport

Skyros, Greece

latitude: 38-58-03N, longitude: 024-29-14E, elevation: 13 m

Current weather observation

The report was made 21 hours and 0 minutes ago, at 16:42 UTC
Wind 8 kt from the Northeast
Temperature 14°C
Humidity 77%
Pressure 1019 hPa
Visibility: 6000 m
Few clouds at a height of 800 ft
Few clouds at a height of 2000 ft, Towering cumulus.
Broken clouds at a height of 2500 ft
light rain

METAR: LGSY 271642Z 04008KT 6000 -RA FEW008 FEW020TCU BKN025 14/10 Q1019 RMK BKN080

Time: 16:42 (13:42 UTC)

Forecast

The report was made 2 hours and 42 minutes ago, at 11:00 UTC
Forecast valid from 28 at 12 UTC to 28 at 21 UTC
Wind 6 kt from the West/Northwest
Visibility 10 km or more
Scattered clouds at a height of 2000 ft

TAF: LGSY 281100Z 2812/2821 30006KT 9999 SCT020

Weather observations and forecasts of more than 4000 airports (METAR and TAF reports).

The available stations are represented by yellow and red dots on the map.

Hover mouse over dot to see the name of the station.

Then click to see weather observations and forecasts.

To change the map : click on the green buttons with a black cross to zoom in, on the green button with a dash to zoom out, or on the green arrows for adjacent maps.


METAR-TAF: